Time;durP1;ratioP1;P1;durP2;ratioP2;P2;SDS_P1;SDS_P2;PMS_P1;PMS_P2;Temp;Humidity;BMP_temperature;BMP_pressure;BME280_temperature;BME280_humidity;BME280_pressure;Samples;Min_cycle;Max_cycle;Signal;HPM_P1;HPM_P2
2023/05/21 00:00:11;;;;;;;13.37;12.07;;;21.20;68.80;;;;;;5028829;28;20250;-74
2023/05/21 00:02:38;;;;;;;13.43;11.80;;;21.20;69.00;;;;;;5032726;28;20202;-75
2023/05/21 00:05:08;;;;;;;13.07;11.67;;;21.10;69.00;;;;;;5032183;28;20204;-74
2023/05/21 00:07:35;;;;;;;13.23;11.93;;;21.10;69.40;;;;;;5032245;28;20222;-74
2023/05/21 00:10:02;;;;;;;13.13;11.77;;;21.10;69.50;;;;;;5033801;28;20209;-75
2023/05/21 00:12:31;;;;;;;14.53;13.03;;;21.10;69.50;;;;;;5033181;28;20213;-73
2023/05/21 00:14:58;;;;;;;13.83;12.47;;;21.10;69.60;;;;;;5032404;28;20642;-72
2023/05/21 00:17:27;;;;;;;13.20;11.90;;;21.10;69.80;;;;;;5031911;28;20226;-75
2023/05/21 00:19:54;;;;;;;13.47;11.87;;;21.10;70.00;;;;;;5032431;28;20265;-76
2023/05/21 00:22:21;;;;;;;13.83;12.33;;;21.10;70.00;;;;;;5032786;28;20230;-75
2023/05/21 00:24:47;;;;;;;13.03;11.67;;;21.00;70.00;;;;;;5032690;28;20206;-74
2023/05/21 00:27:14;;;;;;;14.63;13.13;;;21.00;70.00;;;;;;5033456;28;20623;-74
2023/05/21 00:29:42;;;;;;;13.50;12.00;;;21.00;70.00;;;;;;5033417;28;20206;-74
2023/05/21 00:32:09;;;;;;;13.67;12.17;;;21.00;70.10;;;;;;5032610;28;20207;-74
2023/05/21 00:34:38;;;;;;;14.10;12.70;;;21.00;70.20;;;;;;5014815;28;20213;-74
2023/05/21 00:37:05;;;;;;;13.07;11.87;;;21.00;71.10;;;;;;5030235;28;20589;-74
2023/05/21 00:39:32;;;;;;;14.13;12.73;;;20.90;70.20;;;;;;5032456;28;20301;-74
2023/05/21 00:41:59;;;;;;;12.93;11.60;;;20.90;70.30;;;;;;5032396;28;20258;-74
2023/05/21 00:44:26;;;;;;;13.77;12.37;;;20.90;70.70;;;;;;5031291;28;20210;-74
2023/05/21 00:46:53;;;;;;;13.43;12.13;;;20.90;70.90;;;;;;5032812;28;20237;-75
2023/05/21 00:49:23;;;;;;;13.67;12.27;;;20.90;70.80;;;;;;5031735;28;20213;-74
2023/05/21 00:51:51;;;;;;;13.70;12.30;;;20.90;70.80;;;;;;5032329;28;20575;-74
2023/05/21 00:54:19;;;;;;;13.67;12.30;;;20.80;70.70;;;;;;4981085;28;20206;-75
2023/05/21 00:56:47;;;;;;;14.67;13.07;;;20.80;70.70;;;;;;5015249;28;20297;-74
2023/05/21 00:59:15;;;;;;;13.60;12.20;;;20.80;70.80;;;;;;5031653;28;20521;-75
2023/05/21 01:01:44;;;;;;;14.27;12.77;;;20.80;71.00;;;;;;5031652;28;20756;-75
2023/05/21 01:04:11;;;;;;;15.33;13.83;;;20.70;71.00;;;;;;5030722;28;20233;-74
2023/05/21 01:06:38;;;;;;;13.60;12.37;;;20.70;71.00;;;;;;5031385;28;20217;-74
2023/05/21 01:09:08;;;;;;;14.70;13.30;;;20.70;71.90;;;;;;5013937;28;20649;-75
2023/05/21 01:11:40;;;;;;;13.97;12.67;;;20.70;71.30;;;;;;5031172;28;20203;-75
2023/05/21 01:14:08;;;;;;;16.13;13.37;;;20.70;71.50;;;;;;5032168;28;20694;-75
2023/05/21 01:16:37;;;;;;;14.97;13.13;;;20.60;71.40;;;;;;5032546;28;20236;-75
2023/05/21 01:19:06;;;;;;;14.87;13.30;;;20.60;71.50;;;;;;5031345;28;20202;-76
2023/05/21 01:21:36;;;;;;;14.63;13.17;;;20.60;71.50;;;;;;5026049;28;20235;-75
2023/05/21 01:24:06;;;;;;;14.57;13.17;;;20.60;71.60;;;;;;5019610;28;20202;-75
2023/05/21 01:26:37;;;;;;;13.53;12.13;;;20.60;71.80;;;;;;5032374;28;20558;-74
2023/05/21 01:29:05;;;;;;;16.30;13.67;;;20.60;71.90;;;;;;5032484;28;20713;-75
2023/05/21 01:31:37;;;;;;;14.43;12.97;;;20.60;71.90;;;;;;5015018;28;20210;-74
2023/05/21 01:34:07;;;;;;;13.47;12.23;;;20.60;72.90;;;;;;5030309;28;20211;-77
2023/05/21 01:36:41;;;;;;;16.23;13.00;;;20.50;72.10;;;;;;5032161;28;20704;-77
2023/05/21 01:39:15;;;;;;;14.53;13.07;;;20.50;72.40;;;;;;5032848;28;20250;-76
2023/05/21 01:41:45;;;;;;;14.90;13.30;;;20.50;72.50;;;;;;5032675;28;20240;-75
2023/05/21 01:44:14;;;;;;;14.90;13.33;;;20.50;72.30;;;;;;5031986;28;20210;-74
2023/05/21 01:46:41;;;;;;;16.40;14.43;;;20.50;72.40;;;;;;5032617;28;20596;-75
2023/05/21 01:49:09;;;;;;;14.83;13.43;;;20.40;72.30;;;;;;5032380;28;20203;-74
2023/05/21 01:51:36;;;;;;;14.47;13.07;;;20.40;72.50;;;;;;5032399;28;20226;-74
2023/05/21 01:54:04;;;;;;;14.30;12.90;;;20.40;72.60;;;;;;5031414;28;20297;-74
2023/05/21 01:56:33;;;;;;;15.13;13.60;;;20.40;72.70;;;;;;5032104;28;20213;-75
2023/05/21 01:59:00;;;;;;;14.63;13.23;;;20.40;72.80;;;;;;5032277;28;20597;-75
2023/05/21 02:01:29;;;;;;;15.70;14.10;;;20.40;72.80;;;;;;5031823;28;20231;-75
2023/05/21 02:03:56;;;;;;;16.43;14.70;;;20.40;72.90;;;;;;5032484;28;20635;-75
2023/05/21 02:06:23;;;;;;;16.23;14.63;;;20.30;73.00;;;;;;5032121;28;20202;-75
2023/05/21 02:08:50;;;;;;;15.83;14.00;;;20.30;73.00;;;;;;5031156;28;20319;-74
2023/05/21 02:11:17;;;;;;;15.37;13.80;;;20.30;73.10;;;;;;5030889;28;20202;-75
2023/05/21 02:13:45;;;;;;;16.43;13.03;;;20.30;73.10;;;;;;5030509;28;20789;-77
2023/05/21 02:16:13;;;;;;;17.00;15.20;;;20.30;73.10;;;;;;5029779;28;20226;-75
2023/05/21 02:18:42;;;;;;;15.53;13.93;;;20.30;73.10;;;;;;5037067;28;20214;-75
2023/05/21 02:21:10;;;;;;;15.77;14.07;;;20.30;73.10;;;;;;5048481;28;20226;-74
2023/05/21 02:23:38;;;;;;;15.83;14.23;;;20.20;73.00;;;;;;5045780;28;20230;-76
2023/05/21 02:26:05;;;;;;;16.33;14.73;;;20.20;73.20;;;;;;5047352;28;20206;-75
2023/05/21 02:28:34;;;;;;;15.00;13.13;;;20.20;73.40;;;;;;5056692;28;20302;-76
2023/05/21 02:31:03;;;;;;;15.47;13.97;;;20.20;73.40;;;;;;5032099;28;20199;-75
2023/05/21 02:33:30;;;;;;;14.97;13.37;;;20.20;73.60;;;;;;5030527;28;20213;-75
2023/05/21 02:35:57;;;;;;;15.30;13.70;;;20.10;73.50;;;;;;5030296;28;20210;-75
2023/05/21 02:38:24;;;;;;;15.17;13.60;;;20.20;73.60;;;;;;5031075;28;20213;-75
2023/05/21 02:40:51;;;;;;;15.50;13.90;;;20.10;73.50;;;;;;5013756;28;20254;-76
2023/05/21 02:43:18;;;;;;;16.57;14.73;;;20.10;73.60;;;;;;5025927;28;20249;-77
2023/05/21 02:45:46;;;;;;;15.23;13.73;;;20.10;73.80;;;;;;5027607;28;20206;-76
2023/05/21 02:48:14;;;;;;;15.73;14.13;;;20.00;73.90;;;;;;5012695;28;20378;-76
2023/05/21 02:50:41;;;;;;;15.60;14.00;;;20.00;73.90;;;;;;5031075;28;21045;-78
2023/05/21 02:53:08;;;;;;;15.27;13.67;;;20.00;73.80;;;;;;5031793;28;20212;-78
2023/05/21 02:55:35;;;;;;;15.00;13.60;;;20.00;74.50;;;;;;5031024;28;20209;-75
2023/05/21 02:58:02;;;;;;;14.43;12.93;;;19.90;73.70;;;;;;5030249;28;20254;-75
2023/05/21 03:00:29;;;;;;;15.50;14.00;;;19.90;73.80;;;;;;4996883;28;20218;-75
2023/05/21 03:02:55;;;;;;;15.37;13.87;;;19.90;73.70;;;;;;4979075;28;20209;-77
2023/05/21 03:05:24;;;;;;;14.60;13.30;;;19.80;73.80;;;;;;5030429;28;20206;-75
2023/05/21 03:07:52;;;;;;;15.40;13.80;;;19.80;74.00;;;;;;5022779;28;20659;-76
2023/05/21 03:10:19;;;;;;;15.00;13.40;;;19.80;74.10;;;;;;5022880;28;20206;-76
2023/05/21 03:12:46;;;;;;;16.30;14.63;;;19.70;74.00;;;;;;5031138;28;20689;-76
2023/05/21 03:15:14;;;;;;;15.23;13.73;;;19.70;74.10;;;;;;5030135;28;20826;-76
2023/05/21 03:17:43;;;;;;;16.53;14.70;;;19.60;74.20;;;;;;5030856;28;20210;-76
2023/05/21 03:20:14;;;;;;;14.83;13.20;;;19.60;74.30;;;;;;5031576;28;20210;-77
2023/05/21 03:22:43;;;;;;;15.83;14.13;;;19.60;74.40;;;;;;5031952;28;20217;-76
2023/05/21 03:25:11;;;;;;;15.83;14.23;;;19.50;74.40;;;;;;5025948;28;20305;-76
2023/05/21 03:27:39;;;;;;;16.17;14.57;;;19.50;74.50;;;;;;5030539;28;20238;-76
2023/05/21 03:30:08;;;;;;;14.93;13.50;;;19.40;74.50;;;;;;4980010;28;20203;-76
2023/05/21 03:32:36;;;;;;;16.90;14.77;;;19.40;74.50;;;;;;5030821;28;20818;-75
2023/05/21 03:35:04;;;;;;;15.73;13.57;;;19.40;74.50;;;;;;5031500;28;20206;-75
2023/05/21 03:37:31;;;;;;;16.63;14.83;;;19.30;74.60;;;;;;5035133;28;20198;-75
2023/05/21 03:39:59;;;;;;;16.87;15.17;;;19.30;74.70;;;;;;5035052;28;20216;-76
2023/05/21 03:42:26;;;;;;;16.13;14.50;;;19.30;74.80;;;;;;5034550;28;20222;-75
2023/05/21 03:44:53;;;;;;;17.00;15.20;;;19.20;74.80;;;;;;5031330;28;20202;-75
2023/05/21 03:47:19;;;;;;;16.57;14.40;;;19.20;75.00;;;;;;5038427;28;20207;-77
2023/05/21 03:49:46;;;;;;;15.37;13.77;;;19.20;75.70;;;;;;5034380;28;20837;-73
2023/05/21 03:52:13;;;;;;;16.67;14.97;;;19.20;74.90;;;;;;5035165;28;20206;-77
2023/05/21 03:54:40;;;;;;;18.10;15.37;;;19.20;75.00;;;;;;5034745;28;20560;-76
2023/05/21 03:57:08;;;;;;;15.93;14.33;;;19.10;74.80;;;;;;5033788;28;20313;-75
2023/05/21 03:59:35;;;;;;;15.50;13.97;;;19.10;74.90;;;;;;5033445;28;20469;-75
2023/05/21 04:02:03;;;;;;;15.27;13.67;;;19.10;74.90;;;;;;4983231;28;20572;-75
2023/05/21 04:04:32;;;;;;;15.30;13.60;;;19.10;75.00;;;;;;5031641;28;20211;-75
2023/05/21 04:06:59;;;;;;;17.67;14.70;;;19.10;75.00;;;;;;5033792;28;20465;-75
2023/05/21 04:09:27;;;;;;;15.13;13.63;;;19.10;75.10;;;;;;5035023;28;20235;-77
2023/05/21 04:11:54;;;;;;;16.03;14.33;;;19.00;75.00;;;;;;5035093;28;20202;-76
2023/05/21 04:14:23;;;;;;;15.63;14.10;;;19.00;75.10;;;;;;5017229;28;20677;-73
2023/05/21 04:16:50;;;;;;;14.90;13.40;;;19.00;75.10;;;;;;5035228;28;20294;-79
2023/05/21 04:19:17;;;;;;;14.93;13.53;;;19.00;75.00;;;;;;4982920;28;20222;-80
2023/05/21 04:21:43;;;;;;;14.70;13.07;;;19.00;75.00;;;;;;5034774;28;20222;-76
2023/05/21 04:24:11;;;;;;;13.43;12.13;;;19.00;74.90;;;;;;5035119;28;20202;-78
2023/05/21 04:26:40;;;;;;;14.10;12.67;;;19.00;75.00;;;;;;5034667;28;20237;-76
2023/05/21 04:29:08;;;;;;;13.57;12.33;;;18.90;74.70;;;;;;5034229;28;20199;-75
2023/05/21 04:31:37;;;;;;;13.50;12.20;;;18.90;74.80;;;;;;5034164;28;20248;-75
2023/05/21 04:34:04;;;;;;;14.50;13.10;;;18.90;74.80;;;;;;5033845;28;20234;-75
2023/05/21 04:36:33;;;;;;;15.13;13.63;;;18.90;74.80;;;;;;5034245;28;20202;-77
2023/05/21 04:39:00;;;;;;;14.20;12.80;;;18.90;75.00;;;;;;5033641;28;20544;-75
2023/05/21 04:41:27;;;;;;;13.43;12.03;;;18.90;75.10;;;;;;5030568;28;20219;-75
2023/05/21 04:43:54;;;;;;;15.60;14.03;;;18.90;75.00;;;;;;5029163;28;20202;-75
2023/05/21 04:46:23;;;;;;;14.37;12.97;;;18.90;75.10;;;;;;5026147;28;20289;-76
2023/05/21 04:48:53;;;;;;;15.33;12.80;;;18.90;75.90;;;;;;5033248;28;20207;-75
2023/05/21 04:51:21;;;;;;;13.63;12.23;;;18.90;75.90;;;;;;5033792;28;20206;-75
2023/05/21 04:53:48;;;;;;;14.30;12.90;;;18.90;75.10;;;;;;4990914;28;20203;-76
2023/05/21 04:56:17;;;;;;;14.33;12.93;;;18.90;75.10;;;;;;5033151;28;20465;-75
2023/05/21 04:58:44;;;;;;;13.40;12.10;;;18.90;75.10;;;;;;5032794;28;20211;-74
2023/05/21 05:01:11;;;;;;;13.47;12.07;;;19.00;75.20;;;;;;5033780;28;20228;-75
2023/05/21 05:03:38;;;;;;;13.27;11.97;;;19.00;75.20;;;;;;5033135;28;20206;-76
2023/05/21 05:06:07;;;;;;;13.53;12.13;;;19.00;75.20;;;;;;5034468;28;20677;-74
2023/05/21 05:08:34;;;;;;;14.10;12.70;;;19.00;75.50;;;;;;5033262;28;20225;-74
2023/05/21 05:11:01;;;;;;;14.13;12.63;;;19.10;75.80;;;;;;5033503;28;20195;-75
2023/05/21 05:13:28;;;;;;;15.40;12.70;;;19.10;75.80;;;;;;5032712;28;20234;-76
2023/05/21 05:15:56;;;;;;;15.23;13.73;;;19.20;75.90;;;;;;5031235;28;20202;-75
2023/05/21 05:18:24;;;;;;;15.13;13.63;;;19.20;76.00;;;;;;5016246;28;20280;-75
2023/05/21 05:20:51;;;;;;;16.30;14.53;;;19.30;76.00;;;;;;5035101;28;20238;-75
2023/05/21 05:23:19;;;;;;;15.97;14.37;;;19.30;76.00;;;;;;5033196;28;20301;-77
2023/05/21 05:25:46;;;;;;;15.17;13.63;;;19.40;76.00;;;;;;5034020;28;20210;-74
2023/05/21 05:28:13;;;;;;;16.10;14.50;;;19.40;76.00;;;;;;5033182;28;20206;-75
2023/05/21 05:30:40;;;;;;;19.63;15.70;;;19.50;76.10;;;;;;5033419;28;20483;-75
2023/05/21 05:33:08;;;;;;;19.87;17.77;;;19.50;76.00;;;;;;5032522;28;20318;-75
2023/05/21 05:35:35;;;;;;;17.43;15.60;;;19.60;76.30;;;;;;5031507;28;20217;-76
2023/05/21 05:38:02;;;;;;;16.80;14.87;;;19.60;76.50;;;;;;5027703;28;20249;-75
2023/05/21 05:40:30;;;;;;;16.40;14.00;;;19.60;76.50;;;;;;5032744;28;20685;-75
2023/05/21 05:42:57;;;;;;;15.53;13.93;;;19.70;76.60;;;;;;5031165;28;20701;-75
2023/05/21 05:45:25;;;;;;;16.33;14.63;;;19.80;76.70;;;;;;5032789;28;20194;-74
2023/05/21 05:47:52;;;;;;;18.37;15.27;;;20.00;77.10;;;;;;5033057;28;20492;-76
2023/05/21 05:50:19;;;;;;;15.57;13.97;;;20.10;77.80;;;;;;5032657;28;20202;-75
2023/05/21 05:52:46;;;;;;;15.27;13.63;;;20.20;76.90;;;;;;5032612;28;20236;-75
2023/05/21 05:55:13;;;;;;;17.03;15.33;;;20.30;76.90;;;;;;5032339;28;20285;-75
2023/05/21 05:57:41;;;;;;;16.00;14.40;;;20.40;76.40;;;;;;5033122;28;20313;-75
2023/05/21 06:00:10;;;;;;;18.07;15.20;;;20.50;76.10;;;;;;5031994;28;20205;-76
2023/05/21 06:02:36;;;;;;;16.53;14.43;;;20.60;76.30;;;;;;5032537;28;20234;-75
2023/05/21 06:05:05;;;;;;;16.53;14.67;;;20.70;76.10;;;;;;5032469;28;20559;-75
2023/05/21 06:07:32;;;;;;;17.03;14.80;;;20.80;75.90;;;;;;5032340;28;20621;-75
2023/05/21 06:09:59;;;;;;;19.13;15.63;;;20.90;76.20;;;;;;5014990;28;20217;-75
2023/05/21 06:12:28;;;;;;;17.40;15.27;;;21.00;75.70;;;;;;5032503;28;20207;-76
2023/05/21 06:14:56;;;;;;;15.43;13.83;;;21.00;75.30;;;;;;5033026;28;20566;-74
2023/05/21 06:17:23;;;;;;;16.77;14.53;;;21.10;75.00;;;;;;5031138;28;20199;-72
2023/05/21 06:19:50;;;;;;;16.60;13.90;;;21.20;75.00;;;;;;5030879;28;20244;-74
2023/05/21 06:22:16;;;;;;;14.90;13.07;;;21.20;74.90;;;;;;5030818;28;20223;-75
2023/05/21 06:24:44;;;;;;;15.73;14.03;;;21.30;74.70;;;;;;5028709;28;20663;-74
2023/05/21 06:27:12;;;;;;;15.73;13.87;;;21.40;74.70;;;;;;5029873;28;20209;-75
2023/05/21 06:29:39;;;;;;;17.23;14.87;;;21.50;74.40;;;;;;5030706;28;20212;-75
2023/05/21 06:32:10;;;;;;;15.63;13.37;;;21.50;74.20;;;;;;5030738;28;20191;-75
2023/05/21 06:34:36;;;;;;;14.63;12.80;;;21.60;74.10;;;;;;5029589;28;20297;-73
2023/05/21 06:37:03;;;;;;;15.57;13.70;;;21.70;73.90;;;;;;5028881;28;20206;-74
2023/05/21 06:39:30;;;;;;;15.80;14.13;;;21.80;74.20;;;;;;5030281;28;20206;-74
2023/05/21 06:41:57;;;;;;;15.83;14.23;;;21.90;73.90;;;;;;5010903;28;20214;-73
2023/05/21 06:44:24;;;;;;;15.97;13.60;;;21.90;73.60;;;;;;5030331;28;20210;-74
2023/05/21 06:46:51;;;;;;;12.60;11.23;;;21.90;73.50;;;;;;5031569;28;20209;-75
2023/05/21 06:49:19;;;;;;;14.57;13.07;;;22.00;73.30;;;;;;5035829;28;20734;-76
2023/05/21 06:51:46;;;;;;;15.37;13.77;;;22.10;73.30;;;;;;5027720;28;20201;-75
2023/05/21 06:54:13;;;;;;;15.20;13.57;;;22.10;73.10;;;;;;5030555;28;20458;-74
2023/05/21 06:56:41;;;;;;;15.27;13.47;;;22.20;73.20;;;;;;5030638;28;20552;-74
2023/05/21 06:59:07;;;;;;;16.07;14.13;;;22.20;73.30;;;;;;5030444;28;20297;-75
2023/05/21 07:01:36;;;;;;;14.50;13.10;;;22.20;73.00;;;;;;5030255;28;20309;-77
2023/05/21 07:04:03;;;;;;;14.17;12.70;;;22.30;73.10;;;;;;5031125;28;20682;-78
2023/05/21 07:06:31;;;;;;;16.47;13.30;;;22.30;73.00;;;;;;5029614;28;20206;-73
2023/05/21 07:08:58;;;;;;;14.30;12.37;;;22.40;73.10;;;;;;5029511;28;20207;-75
2023/05/21 07:11:27;;;;;;;14.03;12.40;;;22.40;73.00;;;;;;5030593;28;20729;-79
2023/05/21 07:13:55;;;;;;;14.93;13.27;;;22.50;72.70;;;;;;5030311;28;20206;-72
2023/05/21 07:16:22;;;;;;;14.43;12.93;;;22.60;73.00;;;;;;5030448;28;20202;-79
2023/05/21 07:18:49;;;;;;;13.77;12.43;;;22.60;72.80;;;;;;5022082;28;20233;-73
2023/05/21 07:21:16;;;;;;;12.97;11.77;;;22.70;73.00;;;;;;5029367;28;20210;-71
2023/05/21 07:23:44;;;;;;;13.17;11.60;;;22.70;72.90;;;;;;5029330;28;20313;-78
2023/05/21 07:26:11;;;;;;;13.40;12.10;;;22.80;72.80;;;;;;5030193;28;20297;-80
2023/05/21 07:28:38;;;;;;;13.17;11.67;;;22.80;72.30;;;;;;5029564;28;20206;-79
2023/05/21 07:31:05;;;;;;;14.33;12.83;;;22.90;71.90;;;;;;5030376;28;20667;-80
2023/05/21 07:33:32;;;;;;;12.63;11.43;;;23.00;72.70;;;;;;5028403;28;20218;-73
2023/05/21 07:35:59;;;;;;;14.77;11.90;;;23.00;72.00;;;;;;5029141;28;20742;-75
2023/05/21 07:38:26;;;;;;;13.13;11.83;;;23.10;71.80;;;;;;5029681;28;20264;-74
2023/05/21 07:40:54;;;;;;;12.97;11.40;;;23.20;71.10;;;;;;5029731;28;20290;-73
2023/05/21 07:43:21;;;;;;;12.53;11.27;;;23.20;71.00;;;;;;5028572;28;20222;-72
2023/05/21 07:45:48;;;;;;;13.43;11.43;;;23.30;71.10;;;;;;5027659;28;20295;-75
2023/05/21 07:48:15;;;;;;;15.27;12.30;;;23.30;70.90;;;;;;5028473;28;20268;-74
2023/05/21 07:50:42;;;;;;;12.03;10.93;;;23.40;70.90;;;;;;5009247;28;20293;-72
2023/05/21 07:53:09;;;;;;;12.93;11.63;;;23.40;71.10;;;;;;5028926;28;20190;-73
2023/05/21 07:55:35;;;;;;;11.97;10.77;;;23.50;71.00;;;;;;5029898;28;20207;-74
2023/05/21 07:58:04;;;;;;;12.57;11.27;;;23.50;70.70;;;;;;5028590;28;20300;-73
2023/05/21 08:00:43;;;;;;;12.37;10.87;;;23.50;70.80;;;;;;5028781;28;20206;-72
2023/05/21 08:03:10;;;;;;;13.13;11.90;;;23.70;70.40;;;;;;5028999;28;20568;-72
2023/05/21 08:05:37;;;;;;;11.83;10.63;;;23.70;70.60;;;;;;5029389;28;20690;-72
2023/05/21 08:08:05;;;;;;;12.27;11.07;;;23.90;70.50;;;;;;5026825;28;20568;-74
2023/05/21 08:10:33;;;;;;;12.37;11.17;;;23.90;70.10;;;;;;5009519;28;20206;-74
2023/05/21 08:13:00;;;;;;;11.23;10.13;;;24.10;69.80;;;;;;5029636;28;20207;-73
2023/05/21 08:15:28;;;;;;;12.33;11.13;;;24.10;69.30;;;;;;5029367;28;20222;-74
2023/05/21 08:17:55;;;;;;;11.47;10.37;;;24.10;70.10;;;;;;5027940;28;20246;-73
2023/05/21 08:20:22;;;;;;;13.07;11.80;;;24.20;69.10;;;;;;5027419;28;20209;-75
2023/05/21 08:22:49;;;;;;;12.70;11.40;;;24.30;69.20;;;;;;5030239;28;20255;-73
2023/05/21 08:25:16;;;;;;;11.83;10.67;;;24.40;69.70;;;;;;5026805;28;20317;-74
2023/05/21 08:27:44;;;;;;;11.83;10.73;;;24.50;69.20;;;;;;5029549;28;20268;-75
2023/05/21 08:30:11;;;;;;;12.00;10.87;;;24.50;68.50;;;;;;5029474;28;20226;-74
2023/05/21 08:32:40;;;;;;;11.90;10.70;;;24.60;67.90;;;;;;5030917;28;20298;-74
2023/05/21 08:35:08;;;;;;;12.17;11.07;;;24.60;67.10;;;;;;5034215;28;20566;-74
2023/05/21 08:37:35;;;;;;;12.00;10.80;;;24.60;67.10;;;;;;5031576;28;20213;-74
2023/05/21 08:40:03;;;;;;;11.03;10.03;;;24.70;67.20;;;;;;5028878;28;20576;-75
2023/05/21 08:42:40;;;;;;;11.50;10.40;;;24.80;67.30;;;;;;5032035;28;20222;-74
2023/05/21 08:45:09;;;;;;;11.20;10.10;;;24.80;67.90;;;;;;5031170;28;20559;-75
2023/05/21 08:47:36;;;;;;;10.77;9.77;;;24.90;67.70;;;;;;5032283;28;20214;-74
2023/05/21 08:50:07;;;;;;;11.23;10.13;;;25.10;68.10;;;;;;5012997;28;20234;-74
2023/05/21 08:52:34;;;;;;;11.03;9.73;;;25.30;67.40;;;;;;5035154;28;20394;-75
2023/05/21 08:55:03;;;;;;;11.33;10.20;;;25.40;67.10;;;;;;5049464;28;20292;-73
2023/05/21 08:57:31;;;;;;;11.13;10.13;;;25.50;67.30;;;;;;5032178;28;20547;-74
2023/05/21 08:59:58;;;;;;;11.20;10.20;;;25.60;66.30;;;;;;5032220;28;20298;-75
2023/05/21 09:02:25;;;;;;;10.53;9.57;;;25.60;65.50;;;;;;5031912;28;20660;-75
2023/05/21 09:04:57;;;;;;;12.27;11.00;;;25.70;66.00;;;;;;5032582;28;20297;-74
2023/05/21 09:07:28;;;;;;;11.13;10.03;;;25.80;65.70;;;;;;4996053;28;20205;-74
2023/05/21 09:09:56;;;;;;;10.43;9.47;;;25.90;64.90;;;;;;5031711;28;20284;-74
2023/05/21 09:12:24;;;;;;;11.07;10.07;;;26.00;65.10;;;;;;5031343;28;20219;-74
2023/05/21 09:14:51;;;;;;;11.00;10.00;;;26.20;64.90;;;;;;5030565;28;20800;-75
2023/05/21 09:17:19;;;;;;;10.20;9.30;;;26.20;64.10;;;;;;5029536;28;20761;-74
2023/05/21 09:20:12;;;;;;;11.23;10.13;;;26.30;63.90;;;;;;5033678;28;20797;-75
2023/05/21 09:22:43;;;;;;;10.70;9.70;;;26.40;64.20;;;;;;5043321;28;20233;-75
2023/05/21 09:25:11;;;;;;;10.93;9.93;;;26.50;63.30;;;;;;5029217;28;20207;-73
2023/05/21 09:27:38;;;;;;;10.20;9.30;;;26.50;63.50;;;;;;4994142;28;20771;-73
2023/05/21 09:30:10;;;;;;;11.03;9.93;;;26.60;63.40;;;;;;5028315;28;20227;-75
2023/05/21 09:32:37;;;;;;;10.70;9.70;;;26.60;63.30;;;;;;5025240;28;20799;-75
2023/05/21 09:35:09;;;;;;;10.90;9.93;;;26.70;63.40;;;;;;5028958;28;20302;-74
2023/05/21 09:37:39;;;;;;;10.80;9.70;;;26.70;63.40;;;;;;5031534;28;20202;-74
2023/05/21 09:40:15;;;;;;;10.37;9.37;;;26.70;62.40;;;;;;5031371;28;20214;-74
2023/05/21 09:42:45;;;;;;;10.33;9.37;;;26.70;62.00;;;;;;5030293;28;20302;-74
2023/05/21 09:45:12;;;;;;;10.67;9.67;;;26.80;62.60;;;;;;5037776;28;20301;-74
2023/05/21 09:47:43;;;;;;;10.57;9.63;;;26.90;62.80;;;;;;5028653;28;20297;-75
2023/05/21 09:50:11;;;;;;;12.03;10.93;;;26.90;62.60;;;;;;5030391;28;20203;-73
2023/05/21 09:52:39;;;;;;;11.03;9.93;;;26.90;62.00;;;;;;5027092;28;20203;-73
2023/05/21 09:55:06;;;;;;;10.47;9.53;;;27.00;61.90;;;;;;5030575;28;20299;-78
2023/05/21 09:57:41;;;;;;;10.13;9.20;;;27.10;62.10;;;;;;5030068;28;20215;-74
2023/05/21 10:00:11;;;;;;;9.97;8.97;;;27.10;61.60;;;;;;5030571;28;20202;-74
2023/05/21 10:02:44;;;;;;;9.83;8.83;;;27.20;61.10;;;;;;5028949;28;20315;-75
2023/05/21 10:05:13;;;;;;;9.30;8.50;;;27.20;61.00;;;;;;5029088;28;20198;-72
2023/05/21 10:07:42;;;;;;;8.67;7.97;;;27.30;61.20;;;;;;5028843;28;20631;-73
2023/05/21 10:10:14;;;;;;;9.80;8.90;;;27.30;61.30;;;;;;5040381;28;20203;-73
2023/05/21 10:12:45;;;;;;;9.43;8.53;;;27.40;60.50;;;;;;5026918;28;20214;-72
2023/05/21 10:15:19;;;;;;;9.40;8.50;;;27.50;60.50;;;;;;5024687;28;20312;-71
2023/05/21 10:17:48;;;;;;;9.20;8.33;;;27.70;61.00;;;;;;5031044;28;20271;-73
2023/05/21 10:20:16;;;;;;;9.87;8.97;;;27.80;60.40;;;;;;5035643;28;20215;-72
2023/05/21 10:22:45;;;;;;;10.00;9.03;;;28.00;59.40;;;;;;5029429;28;20258;-73
2023/05/21 10:25:13;;;;;;;9.70;8.70;;;28.00;59.20;;;;;;5029432;28;20213;-73
2023/05/21 10:27:43;;;;;;;8.80;8.00;;;28.10;59.30;;;;;;5030278;28;20222;-73
2023/05/21 10:30:11;;;;;;;9.30;8.23;;;28.20;59.10;;;;;;5029969;28;20219;-72
2023/05/21 10:32:40;;;;;;;9.03;8.13;;;28.40;59.00;;;;;;5029995;28;20692;-72
2023/05/21 10:35:08;;;;;;;9.93;9.03;;;28.50;58.70;;;;;;5029764;28;20206;-72
2023/05/21 10:37:37;;;;;;;9.37;8.47;;;28.60;58.40;;;;;;5030265;28;20288;-72
2023/05/21 10:40:04;;;;;;;8.77;7.97;;;28.70;58.40;;;;;;5030501;28;20760;-72
2023/05/21 10:43:02;;;;;;;7.63;6.93;;;28.70;58.00;;;;;;5029509;28;20209;-72
2023/05/21 10:45:45;;;;;;;8.10;7.30;;;28.80;56.40;;;;;;5028923;28;20250;-71
2023/05/21 10:48:28;;;;;;;7.77;7.00;;;28.80;57.00;;;;;;5030618;28;20241;-72
2023/05/21 10:51:19;;;;;;;7.93;7.13;;;28.90;55.60;;;;;;5030676;28;20282;-72
2023/05/21 10:53:59;;;;;;;7.60;6.90;;;28.90;54.80;;;;;;5026168;28;20238;-73
2023/05/21 10:56:30;;;;;;;8.17;7.37;;;28.90;54.80;;;;;;5030230;28;20208;-72
2023/05/21 10:59:14;;;;;;;7.70;7.10;;;28.90;55.20;;;;;;5030594;28;20296;-71
2023/05/21 11:01:42;;;;;;;7.17;6.57;;;29.00;55.10;;;;;;5030388;28;20640;-72
2023/05/21 11:04:11;;;;;;;7.47;6.87;;;29.10;55.30;;;;;;5030416;28;20634;-71
2023/05/21 11:06:37;;;;;;;7.83;7.13;;;29.10;54.70;;;;;;5030248;28;20217;-72
2023/05/21 11:09:12;;;;;;;7.50;6.80;;;29.10;54.50;;;;;;5030557;28;20212;-72
2023/05/21 11:11:42;;;;;;;7.43;6.77;;;29.10;53.60;;;;;;5030193;28;20212;-72
2023/05/21 11:14:34;;;;;;;8.47;7.43;;;29.20;54.10;;;;;;5030214;28;20214;-73
2023/05/21 11:17:03;;;;;;;7.67;6.97;;;29.20;53.80;;;;;;5030208;28;20292;-72
2023/05/21 11:19:35;;;;;;;8.10;7.30;;;29.20;54.30;;;;;;5030338;28;20202;-73
2023/05/21 11:22:09;;;;;;;8.53;7.63;;;29.30;54.30;;;;;;5030317;28;20226;-72
2023/05/21 11:24:38;;;;;;;7.30;6.70;;;29.30;54.20;;;;;;5030208;28;20259;-73
2023/05/21 11:27:05;;;;;;;7.77;7.00;;;29.30;53.90;;;;;;5030135;28;20230;-72
2023/05/21 11:29:48;;;;;;;7.37;6.53;;;29.30;53.60;;;;;;5029858;28;20603;-74
2023/05/21 11:32:19;;;;;;;7.60;6.90;;;29.30;53.20;;;;;;5027716;28;20570;-72
2023/05/21 11:34:47;;;;;;;7.70;7.00;;;29.20;53.20;;;;;;5030309;28;20201;-72
2023/05/21 11:37:33;;;;;;;7.73;6.93;;;29.30;54.10;;;;;;5030000;28;20237;-72
2023/05/21 11:40:35;;;;;;;7.70;7.10;;;29.30;52.50;;;;;;5030058;28;20668;-72
2023/05/21 11:43:02;;;;;;;7.37;6.67;;;29.20;52.30;;;;;;5030014;28;20236;-73
2023/05/21 11:45:32;;;;;;;7.73;6.93;;;29.20;52.90;;;;;;5029511;28;20209;-72
2023/05/21 11:48:00;;;;;;;7.43;6.70;;;29.20;53.30;;;;;;5029765;28;20626;-73
2023/05/21 11:50:29;;;;;;;7.57;6.87;;;29.20;53.10;;;;;;5030408;28;20315;-73
2023/05/21 11:52:58;;;;;;;7.07;6.37;;;29.30;53.00;;;;;;5030669;28;20214;-72
2023/05/21 11:55:25;;;;;;;7.87;7.17;;;29.30;53.60;;;;;;5030552;28;20555;-71
2023/05/21 11:57:54;;;;;;;7.40;6.73;;;29.30;53.50;;;;;;5033073;28;20216;-71
2023/05/21 12:00:21;;;;;;;7.40;6.70;;;29.30;54.00;;;;;;5034197;28;20305;-71
2023/05/21 12:02:51;;;;;;;7.73;7.03;;;29.40;54.00;;;;;;5033859;28;20209;-73
2023/05/21 12:05:17;;;;;;;7.23;6.53;;;29.50;54.10;;;;;;5033262;28;20681;-72
2023/05/21 12:07:48;;;;;;;7.83;7.13;;;29.50;54.00;;;;;;5033734;28;20202;-72
2023/05/21 12:10:15;;;;;;;7.97;6.77;;;29.60;53.80;;;;;;5033627;28;20304;-73
2023/05/21 12:12:42;;;;;;;7.23;6.63;;;29.60;53.40;;;;;;5033469;28;20217;-71
2023/05/21 12:15:12;;;;;;;6.83;6.20;;;29.60;53.10;;;;;;5033586;28;20255;-71
2023/05/21 12:17:40;;;;;;;7.30;6.70;;;29.70;52.80;;;;;;5033111;28;20297;-70
2023/05/21 12:20:09;;;;;;;7.13;6.53;;;29.70;52.90;;;;;;5033518;28;20234;-72
2023/05/21 12:22:42;;;;;;;7.57;6.83;;;29.70;52.20;;;;;;5033534;28;20217;-71
2023/05/21 12:25:10;;;;;;;7.20;6.60;;;29.70;52.60;;;;;;5032111;28;20244;-72
2023/05/21 12:27:38;;;;;;;7.30;6.60;;;29.70;52.50;;;;;;5032695;28;20206;-72
2023/05/21 12:30:07;;;;;;;6.90;6.20;;;29.70;52.50;;;;;;5032151;28;20260;-71
2023/05/21 12:32:34;;;;;;;7.07;6.47;;;29.80;52.60;;;;;;5033353;28;20268;-73
2023/05/21 12:35:01;;;;;;;7.17;6.47;;;29.80;52.50;;;;;;5033131;28;20203;-72
2023/05/21 12:37:31;;;;;;;7.37;6.67;;;29.80;52.50;;;;;;5032739;28;20221;-71